sensor_id;sensor_type;location;lat;lon;timestamp;P1;durP1;ratioP1;P2;durP2;ratioP2
22863;SDS011;11599;49.882;8.680;2023-03-11T00:00:56;1.60;;;1.03;;
22863;SDS011;11599;49.882;8.680;2023-03-11T00:11:18;1.50;;;0.80;;
22863;SDS011;11599;49.882;8.680;2023-03-11T00:21:42;1.63;;;0.80;;
22863;SDS011;11599;49.882;8.680;2023-03-11T00:32:04;3.17;;;0.70;;
22863;SDS011;11599;49.882;8.680;2023-03-11T00:42:27;6.03;;;0.83;;
22863;SDS011;11599;49.882;8.680;2023-03-11T00:52:49;4.73;;;0.60;;
22863;SDS011;11599;49.882;8.680;2023-03-11T01:03:12;2.83;;;0.70;;
22863;SDS011;11599;49.882;8.680;2023-03-11T01:13:33;2.03;;;0.63;;
22863;SDS011;11599;49.882;8.680;2023-03-11T01:23:56;2.43;;;0.50;;
22863;SDS011;11599;49.882;8.680;2023-03-11T01:34:18;3.60;;;0.67;;
22863;SDS011;11599;49.882;8.680;2023-03-11T01:44:41;1.73;;;0.50;;
22863;SDS011;11599;49.882;8.680;2023-03-11T01:55:02;2.60;;;0.60;;
22863;SDS011;11599;49.882;8.680;2023-03-11T02:05:27;4.83;;;0.70;;
22863;SDS011;11599;49.882;8.680;2023-03-11T02:15:49;5.10;;;0.90;;
22863;SDS011;11599;49.882;8.680;2023-03-11T02:26:14;4.07;;;0.60;;
22863;SDS011;11599;49.882;8.680;2023-03-11T02:36:40;6.00;;;0.60;;
22863;SDS011;11599;49.882;8.680;2023-03-11T02:47:05;2.43;;;0.60;;
22863;SDS011;11599;49.882;8.680;2023-03-11T02:57:29;2.10;;;0.60;;
22863;SDS011;11599;49.882;8.680;2023-03-11T03:07:50;3.03;;;0.93;;
22863;SDS011;11599;49.882;8.680;2023-03-11T03:18:13;5.80;;;0.90;;
22863;SDS011;11599;49.882;8.680;2023-03-11T03:28:35;2.97;;;0.70;;
22863;SDS011;11599;49.882;8.680;2023-03-11T03:38:58;6.03;;;0.97;;
22863;SDS011;11599;49.882;8.680;2023-03-11T03:49:25;10.27;;;0.90;;
22863;SDS011;11599;49.882;8.680;2023-03-11T03:59:48;6.47;;;0.93;;
22863;SDS011;11599;49.882;8.680;2023-03-11T04:10:12;3.27;;;1.13;;
22863;SDS011;11599;49.882;8.680;2023-03-11T04:20:38;9.90;;;1.37;;
22863;SDS011;11599;49.882;8.680;2023-03-11T04:31:00;9.87;;;0.90;;
22863;SDS011;11599;49.882;8.680;2023-03-11T04:41:24;5.43;;;0.80;;
22863;SDS011;11599;49.882;8.680;2023-03-11T04:51:45;4.63;;;1.10;;
22863;SDS011;11599;49.882;8.680;2023-03-11T05:02:11;7.30;;;1.40;;
22863;SDS011;11599;49.882;8.680;2023-03-11T05:12:35;4.43;;;1.20;;
22863;SDS011;11599;49.882;8.680;2023-03-11T05:22:58;11.23;;;1.20;;
22863;SDS011;11599;49.882;8.680;2023-03-11T05:33:22;5.90;;;1.30;;
22863;SDS011;11599;49.882;8.680;2023-03-11T05:43:46;12.30;;;1.57;;
22863;SDS011;11599;49.882;8.680;2023-03-11T05:54:08;6.70;;;1.37;;
22863;SDS011;11599;49.882;8.680;2023-03-11T06:04:37;9.63;;;1.20;;
22863;SDS011;11599;49.882;8.680;2023-03-11T06:15:01;6.20;;;1.30;;
22863;SDS011;11599;49.882;8.680;2023-03-11T06:25:24;7.63;;;1.50;;
22863;SDS011;11599;49.882;8.680;2023-03-11T06:35:54;13.77;;;1.63;;
22863;SDS011;11599;49.882;8.680;2023-03-11T06:46:18;4.33;;;1.10;;
22863;SDS011;11599;49.882;8.680;2023-03-11T06:56:40;15.53;;;1.83;;
22863;SDS011;11599;49.882;8.680;2023-03-11T07:07:04;10.80;;;1.87;;
22863;SDS011;11599;49.882;8.680;2023-03-11T07:17:26;11.13;;;2.53;;
22863;SDS011;11599;49.882;8.680;2023-03-11T07:27:49;7.77;;;1.47;;
22863;SDS011;11599;49.882;8.680;2023-03-11T07:38:10;9.63;;;1.53;;
22863;SDS011;11599;49.882;8.680;2023-03-11T07:48:34;7.78;;;1.40;;
22863;SDS011;11599;49.882;8.680;2023-03-11T07:58:56;14.83;;;1.30;;
22863;SDS011;11599;49.882;8.680;2023-03-11T08:09:19;9.40;;;1.20;;
22863;SDS011;11599;49.882;8.680;2023-03-11T08:19:40;7.10;;;1.50;;
22863;SDS011;11599;49.882;8.680;2023-03-11T08:30:03;9.30;;;1.70;;
22863;SDS011;11599;49.882;8.680;2023-03-11T08:40:25;8.70;;;1.50;;
22863;SDS011;11599;49.882;8.680;2023-03-11T08:50:48;10.03;;;1.00;;
22863;SDS011;11599;49.882;8.680;2023-03-11T09:01:10;6.90;;;1.23;;
22863;SDS011;11599;49.882;8.680;2023-03-11T09:11:33;6.00;;;1.20;;
22863;SDS011;11599;49.882;8.680;2023-03-11T09:21:58;7.27;;;1.20;;
22863;SDS011;11599;49.882;8.680;2023-03-11T09:32:21;5.70;;;0.83;;
22863;SDS011;11599;49.882;8.680;2023-03-11T09:42:44;6.17;;;0.90;;
22863;SDS011;11599;49.882;8.680;2023-03-11T09:53:24;5.70;;;1.07;;
22863;SDS011;11599;49.882;8.680;2023-03-11T10:03:47;3.85;;;1.13;;
22863;SDS011;11599;49.882;8.680;2023-03-11T10:14:15;3.47;;;0.90;;
22863;SDS011;11599;49.882;8.680;2023-03-11T10:24:49;3.83;;;1.10;;
22863;SDS011;11599;49.882;8.680;2023-03-11T10:35:18;5.43;;;1.30;;
22863;SDS011;11599;49.882;8.680;2023-03-11T10:45:41;3.38;;;1.00;;
22863;SDS011;11599;49.882;8.680;2023-03-11T10:56:09;5.95;;;1.35;;
22863;SDS011;11599;49.882;8.680;2023-03-11T11:06:43;3.23;;;0.83;;
22863;SDS011;11599;49.882;8.680;2023-03-11T11:17:12;5.83;;;1.03;;
22863;SDS011;11599;49.882;8.680;2023-03-11T11:27:34;3.63;;;1.63;;
22863;SDS011;11599;49.882;8.680;2023-03-11T11:37:58;7.63;;;1.40;;
22863;SDS011;11599;49.882;8.680;2023-03-11T11:48:21;6.15;;;1.48;;
22863;SDS011;11599;49.882;8.680;2023-03-11T11:58:46;4.10;;;1.37;;
22863;SDS011;11599;49.882;8.680;2023-03-11T12:09:11;5.10;;;1.20;;
22863;SDS011;11599;49.882;8.680;2023-03-11T12:19:38;4.97;;;1.38;;
22863;SDS011;11599;49.882;8.680;2023-03-11T12:30:02;4.37;;;1.03;;
22863;SDS011;11599;49.882;8.680;2023-03-11T12:40:49;6.00;;;1.10;;
22863;SDS011;11599;49.882;8.680;2023-03-11T13:02:03;4.43;;;1.10;;
22863;SDS011;11599;49.882;8.680;2023-03-11T13:12:37;5.63;;;1.30;;
22863;SDS011;11599;49.882;8.680;2023-03-11T13:33:40;4.20;;;1.40;;
22863;SDS011;11599;49.882;8.680;2023-03-11T13:44:09;5.63;;;1.30;;
22863;SDS011;11599;49.882;8.680;2023-03-11T13:54:38;6.28;;;1.40;;
22863;SDS011;11599;49.882;8.680;2023-03-11T14:05:03;3.00;;;1.00;;
22863;SDS011;11599;49.882;8.680;2023-03-11T14:15:27;6.63;;;1.30;;
22863;SDS011;11599;49.882;8.680;2023-03-11T14:25:56;5.03;;;1.20;;
22863;SDS011;11599;49.882;8.680;2023-03-11T14:36:18;5.10;;;1.10;;
22863;SDS011;11599;49.882;8.680;2023-03-11T14:46:40;6.57;;;1.23;;
22863;SDS011;11599;49.882;8.680;2023-03-11T14:57:04;6.20;;;1.37;;
22863;SDS011;11599;49.882;8.680;2023-03-11T15:07:27;3.57;;;0.90;;
22863;SDS011;11599;49.882;8.680;2023-03-11T15:17:53;3.80;;;1.05;;
22863;SDS011;11599;49.882;8.680;2023-03-11T15:28:19;4.50;;;1.23;;
22863;SDS011;11599;49.882;8.680;2023-03-11T15:38:44;5.55;;;1.40;;
22863;SDS011;11599;49.882;8.680;2023-03-11T15:49:08;2.60;;;1.00;;
22863;SDS011;11599;49.882;8.680;2023-03-11T15:59:33;6.83;;;1.40;;
22863;SDS011;11599;49.882;8.680;2023-03-11T16:09:56;5.77;;;1.30;;
22863;SDS011;11599;49.882;8.680;2023-03-11T16:20:19;4.93;;;1.30;;
22863;SDS011;11599;49.882;8.680;2023-03-11T16:30:41;6.72;;;1.55;;
22863;SDS011;11599;49.882;8.680;2023-03-11T16:41:03;8.68;;;1.63;;
22863;SDS011;11599;49.882;8.680;2023-03-11T16:51:25;4.10;;;1.20;;
22863;SDS011;11599;49.882;8.680;2023-03-11T17:01:48;3.37;;;1.27;;
22863;SDS011;11599;49.882;8.680;2023-03-11T17:12:09;5.90;;;1.50;;
22863;SDS011;11599;49.882;8.680;2023-03-11T17:22:36;6.72;;;1.60;;
22863;SDS011;11599;49.882;8.680;2023-03-11T17:32:57;7.17;;;1.80;;
22863;SDS011;11599;49.882;8.680;2023-03-11T17:43:20;5.00;;;1.77;;
22863;SDS011;11599;49.882;8.680;2023-03-11T17:53:42;4.03;;;1.07;;
22863;SDS011;11599;49.882;8.680;2023-03-11T18:04:05;4.57;;;1.30;;
22863;SDS011;11599;49.882;8.680;2023-03-11T18:14:27;6.90;;;1.37;;
22863;SDS011;11599;49.882;8.680;2023-03-11T18:24:50;5.87;;;1.40;;
22863;SDS011;11599;49.882;8.680;2023-03-11T18:35:11;3.37;;;1.10;;
22863;SDS011;11599;49.882;8.680;2023-03-11T18:45:34;2.33;;;1.20;;
22863;SDS011;11599;49.882;8.680;2023-03-11T18:55:58;5.30;;;1.20;;
22863;SDS011;11599;49.882;8.680;2023-03-11T19:06:22;4.70;;;1.20;;
22863;SDS011;11599;49.882;8.680;2023-03-11T19:16:45;6.23;;;1.47;;
22863;SDS011;11599;49.882;8.680;2023-03-11T19:27:08;3.47;;;1.00;;
22863;SDS011;11599;49.882;8.680;2023-03-11T19:37:29;3.43;;;1.07;;
22863;SDS011;11599;49.882;8.680;2023-03-11T19:47:52;6.47;;;1.23;;
22863;SDS011;11599;49.882;8.680;2023-03-11T19:58:13;13.70;;;1.30;;
22863;SDS011;11599;49.882;8.680;2023-03-11T20:08:36;7.03;;;1.47;;
22863;SDS011;11599;49.882;8.680;2023-03-11T20:18:57;3.03;;;1.20;;
22863;SDS011;11599;49.882;8.680;2023-03-11T20:29:20;7.40;;;1.57;;
22863;SDS011;11599;49.882;8.680;2023-03-11T20:39:41;9.10;;;1.60;;
22863;SDS011;11599;49.882;8.680;2023-03-11T20:50:05;9.03;;;2.17;;
22863;SDS011;11599;49.882;8.680;2023-03-11T21:00:26;5.37;;;1.97;;
22863;SDS011;11599;49.882;8.680;2023-03-11T21:10:49;6.53;;;1.80;;
22863;SDS011;11599;49.882;8.680;2023-03-11T21:21:11;3.10;;;1.40;;
22863;SDS011;11599;49.882;8.680;2023-03-11T21:31:34;11.40;;;2.37;;
22863;SDS011;11599;49.882;8.680;2023-03-11T21:41:55;11.57;;;2.17;;
22863;SDS011;11599;49.882;8.680;2023-03-11T21:52:18;4.07;;;1.57;;
22863;SDS011;11599;49.882;8.680;2023-03-11T22:02:40;6.23;;;2.07;;
22863;SDS011;11599;49.882;8.680;2023-03-11T22:13:02;3.60;;;1.20;;
22863;SDS011;11599;49.882;8.680;2023-03-11T22:23:24;9.50;;;1.37;;
22863;SDS011;11599;49.882;8.680;2023-03-11T22:33:47;7.13;;;1.33;;
22863;SDS011;11599;49.882;8.680;2023-03-11T22:44:08;5.80;;;1.43;;
22863;SDS011;11599;49.882;8.680;2023-03-11T22:54:31;8.27;;;1.90;;
22863;SDS011;11599;49.882;8.680;2023-03-11T23:04:53;4.20;;;1.60;;
22863;SDS011;11599;49.882;8.680;2023-03-11T23:15:16;4.13;;;1.60;;
22863;SDS011;11599;49.882;8.680;2023-03-11T23:25:38;4.70;;;1.50;;
22863;SDS011;11599;49.882;8.680;2023-03-11T23:36:01;4.90;;;1.87;;
22863;SDS011;11599;49.882;8.680;2023-03-11T23:46:23;7.57;;;1.97;;
22863;SDS011;11599;49.882;8.680;2023-03-11T23:56:46;5.87;;;2.23;;
